createdAt,value
2018-09-10T00:00:57.449Z,952.72
2018-09-10T00:01:57.445Z,952.70
2018-09-10T00:02:57.440Z,952.70
2018-09-10T00:03:57.433Z,952.69
2018-09-10T00:04:57.435Z,952.71
2018-09-10T00:05:57.431Z,952.73
2018-09-10T00:06:57.451Z,952.75
2018-09-10T00:07:57.423Z,952.70
2018-09-10T00:08:57.423Z,952.75
2018-09-10T00:09:57.419Z,952.74
2018-09-10T00:10:57.410Z,952.75
2018-09-10T00:11:57.415Z,952.76
2018-09-10T00:12:57.405Z,952.73
2018-09-10T00:13:57.407Z,952.71
2018-09-10T00:14:57.397Z,952.72
2018-09-10T00:15:57.395Z,952.76
2018-09-10T00:16:57.390Z,952.74
2018-09-10T00:17:57.387Z,952.74
2018-09-10T00:18:57.382Z,952.74
2018-09-10T00:19:57.383Z,952.73
2018-09-10T00:20:57.379Z,952.69
2018-09-10T00:21:57.376Z,952.70
2018-09-10T00:22:57.371Z,952.70
2018-09-10T00:23:57.367Z,952.69
2018-09-10T00:24:57.369Z,952.66
2018-09-10T00:25:57.360Z,952.68
2018-09-10T00:26:57.357Z,952.66
2018-09-10T00:27:57.352Z,952.68
2018-09-10T00:28:57.354Z,952.69
2018-09-10T00:29:57.347Z,952.68
2018-09-10T00:30:57.338Z,952.69
2018-09-10T00:31:57.336Z,952.68
2018-09-10T00:32:57.332Z,952.72
2018-09-10T00:33:57.328Z,952.72
2018-09-10T00:34:57.327Z,952.69
2018-09-10T00:35:57.319Z,952.69
2018-09-10T00:36:57.316Z,952.74
2018-09-10T00:37:57.311Z,952.71
2018-09-10T00:38:57.329Z,952.72
2018-09-10T00:39:57.305Z,952.76
2018-09-10T00:40:57.304Z,952.79
2018-09-10T00:41:57.298Z,952.81
2018-09-10T00:42:57.291Z,952.76
2018-09-10T00:43:57.291Z,952.80
2018-09-10T00:44:57.290Z,952.76
2018-09-10T00:45:57.282Z,952.75
2018-09-10T00:46:57.281Z,952.77
2018-09-10T00:47:57.278Z,952.80
2018-09-10T00:48:57.272Z,952.78
2018-09-10T00:49:57.271Z,952.78
2018-09-10T00:50:57.265Z,952.79
2018-09-10T00:51:57.264Z,952.82
2018-09-10T00:52:57.254Z,952.84
2018-09-10T00:53:57.253Z,952.87
2018-09-10T00:54:57.247Z,952.82
2018-09-10T00:55:57.248Z,952.83
2018-09-10T00:56:57.248Z,952.83
2018-09-10T00:57:57.245Z,952.86
2018-09-10T00:58:57.236Z,952.86
2018-09-10T00:59:57.232Z,952.85
2018-09-10T01:00:57.230Z,952.84
2018-09-10T01:01:57.224Z,952.90
2018-09-10T01:02:57.218Z,952.88
2018-09-10T01:03:57.219Z,952.88
2018-09-10T01:04:57.211Z,952.87
2018-09-10T01:05:57.212Z,952.87
2018-09-10T01:06:57.205Z,952.84
2018-09-10T01:07:57.192Z,952.83
2018-09-10T01:08:57.209Z,952.84
2018-09-10T01:09:57.192Z,952.82
2018-09-10T01:10:57.192Z,952.85
2018-09-10T01:11:57.187Z,952.82
2018-09-10T01:12:57.181Z,952.81
2018-09-10T01:13:57.181Z,952.80
2018-09-10T01:14:57.174Z,952.81
2018-09-10T01:15:57.172Z,952.81
2018-09-10T01:16:57.165Z,952.81
2018-09-10T01:17:57.162Z,952.82
2018-09-10T01:18:57.159Z,952.80
2018-09-10T01:19:57.153Z,952.81
2018-09-10T01:20:57.153Z,952.84
2018-09-10T01:21:57.147Z,952.82
2018-09-10T01:22:57.141Z,952.83
2018-09-10T01:23:57.138Z,952.82
2018-09-10T01:24:57.132Z,952.83
2018-09-10T01:25:57.134Z,952.80
2018-09-10T01:26:57.126Z,952.81
2018-09-10T01:27:57.125Z,952.85
2018-09-10T01:28:57.132Z,952.87
2018-09-10T01:29:57.115Z,952.83
2018-09-10T02:06:58.854Z,952.70
2018-09-10T02:07:58.823Z,952.73
2018-09-10T02:09:51.813Z,952.74
2018-09-10T02:10:51.778Z,952.72
2018-09-10T02:12:44.766Z,952.74
2018-09-10T02:13:44.780Z,952.69
2018-09-10T02:15:37.635Z,952.69
2018-09-10T02:16:37.615Z,952.64
2018-09-10T02:18:30.570Z,952.62
2018-09-10T02:19:30.553Z,952.59
2018-09-10T02:21:23.518Z,952.56
2018-09-10T02:22:23.506Z,952.58
2018-09-10T02:24:16.481Z,952.58
2018-09-10T02:25:16.460Z,952.59
2018-09-10T02:27:09.431Z,952.60
2018-09-10T02:28:09.421Z,952.61
2018-09-10T02:30:02.398Z,952.59
2018-09-10T02:31:02.372Z,952.59
2018-09-10T02:32:55.351Z,952.56
2018-09-10T02:33:55.328Z,952.61
2018-09-10T02:35:48.282Z,952.65
2018-09-10T02:36:48.277Z,952.63
2018-09-10T02:38:41.347Z,952.64
2018-09-10T02:39:41.234Z,952.58
2018-09-10T02:41:34.197Z,952.60
2018-09-10T02:42:34.190Z,952.61
2018-09-10T02:44:27.170Z,952.62
2018-09-10T02:45:27.148Z,952.56
2018-09-10T02:47:20.107Z,952.56
2018-09-10T02:48:20.099Z,952.57
2018-09-10T02:50:13.081Z,952.59
2018-09-10T02:51:13.053Z,952.53
2018-09-10T02:53:06.025Z,952.56
2018-09-10T02:54:06.004Z,952.53
2018-09-10T02:55:58.983Z,952.58
2018-09-10T02:56:58.958Z,952.54
2018-09-10T02:58:51.910Z,952.55
2018-09-10T02:59:51.887Z,952.55
2018-09-10T03:01:44.806Z,952.53
2018-09-10T03:02:44.781Z,952.55
2018-09-10T03:04:37.746Z,952.56
2018-09-10T03:05:37.726Z,952.54
2018-09-10T03:07:30.656Z,952.54
2018-09-10T03:08:30.642Z,952.55
2018-09-10T03:10:23.551Z,952.59
2018-09-10T03:11:23.526Z,952.60
2018-09-10T03:13:16.503Z,952.62
2018-09-10T03:14:16.480Z,952.62
2018-09-10T03:16:09.454Z,952.64
2018-09-10T03:17:09.433Z,952.62
2018-09-10T03:19:02.408Z,952.61
2018-09-10T03:20:02.391Z,952.61
2018-09-10T03:21:55.448Z,952.58
2018-09-10T03:22:55.437Z,952.58
2018-09-10T03:24:48.425Z,952.58
2018-09-10T03:25:48.403Z,952.54
2018-09-10T03:27:41.326Z,952.53
2018-09-10T03:28:41.304Z,952.60
2018-09-10T03:30:34.232Z,952.62
2018-09-10T03:31:34.209Z,952.62
2018-09-10T03:33:27.193Z,952.67
2018-09-10T03:34:27.171Z,952.62
2018-09-10T03:36:20.140Z,952.70
2018-09-10T03:37:20.121Z,952.68
2018-09-10T03:39:13.056Z,952.69
2018-09-10T03:40:13.037Z,952.73
2018-09-10T03:42:05.938Z,952.69
2018-09-10T03:43:05.924Z,952.70
2018-09-10T03:44:58.899Z,952.69
2018-09-10T03:45:58.876Z,952.71
2018-09-10T03:47:51.797Z,952.75
2018-09-10T03:48:51.786Z,952.73
2018-09-10T03:50:44.712Z,952.76
2018-09-10T03:51:44.690Z,952.80
2018-09-10T03:52:44.690Z,952.83
2018-09-10T03:53:44.683Z,952.86
2018-09-10T03:54:44.681Z,952.86
2018-09-10T03:55:44.671Z,952.86
2018-09-10T03:56:44.672Z,952.88
2018-09-10T03:57:44.665Z,952.90
2018-09-10T03:58:44.662Z,952.92
2018-09-10T03:59:44.657Z,952.96
2018-09-10T04:00:44.657Z,952.96
2018-09-10T04:01:44.654Z,952.99
2018-09-10T04:02:44.643Z,952.97
2018-09-10T04:03:44.640Z,953.00
2018-09-10T04:04:44.652Z,953.04
2018-09-10T04:05:44.635Z,953.06
2018-09-10T04:06:44.627Z,953.08
2018-09-10T04:07:44.629Z,953.10
2018-09-10T04:08:44.627Z,953.16
2018-09-10T04:09:44.618Z,953.06
2018-09-10T04:10:44.615Z,953.10
2018-09-10T04:11:44.609Z,953.09
2018-09-10T04:12:44.608Z,953.11
2018-09-10T04:13:44.608Z,953.10
2018-09-10T04:14:44.599Z,953.10
2018-09-10T04:15:44.598Z,953.11
2018-09-10T04:16:44.592Z,953.12
2018-09-10T04:17:44.591Z,953.17
2018-09-10T04:18:44.585Z,953.12
2018-09-10T04:19:44.579Z,953.12
2018-09-10T04:20:44.574Z,953.14
2018-09-10T04:21:44.575Z,953.08
2018-09-10T04:22:44.569Z,953.15
2018-09-10T04:23:44.565Z,953.14
2018-09-10T04:24:44.564Z,953.19
2018-09-10T04:25:44.564Z,953.20
2018-09-10T04:26:44.557Z,953.17
2018-09-10T04:27:44.549Z,953.20
2018-09-10T04:28:44.554Z,953.25
2018-09-10T04:29:44.544Z,953.24
2018-09-10T04:30:44.539Z,953.23
2018-09-10T04:31:44.532Z,953.27
2018-09-10T04:32:44.537Z,953.26
2018-09-10T04:33:44.527Z,953.26
2018-09-10T04:34:44.532Z,953.29
2018-09-10T04:35:44.536Z,953.29
2018-09-10T04:36:44.523Z,953.24
2018-09-10T04:37:44.518Z,953.25
2018-09-10T04:38:44.518Z,953.24
2018-09-10T04:39:44.514Z,953.25
2018-09-10T04:40:44.503Z,953.21
2018-09-10T04:41:44.503Z,953.21
2018-09-10T04:42:44.499Z,953.23
2018-09-10T04:43:44.514Z,953.23
2018-09-10T04:44:44.496Z,953.23
2018-09-10T04:45:44.487Z,953.23
2018-09-10T04:46:44.478Z,953.27
2018-09-10T04:47:44.477Z,953.26
2018-09-10T04:48:44.476Z,953.25
2018-09-10T04:49:44.523Z,953.32
2018-09-10T04:50:44.468Z,953.30
2018-09-10T04:51:44.466Z,953.29
2018-09-10T04:52:44.467Z,953.31
2018-09-10T04:53:44.472Z,953.33
2018-09-10T04:54:44.454Z,953.34
2018-09-10T04:55:44.444Z,953.37
2018-09-10T04:56:44.438Z,953.41
2018-09-10T04:57:44.441Z,953.43
2018-09-10T04:58:44.430Z,953.45
2018-09-10T04:59:44.428Z,953.44
2018-09-10T05:00:44.429Z,953.41
2018-09-10T05:01:44.425Z,953.41
2018-09-10T05:02:44.410Z,953.44
2018-09-10T05:03:44.413Z,953.43
2018-09-10T05:04:44.408Z,953.42
2018-09-10T05:05:44.402Z,953.45
2018-09-10T05:06:44.397Z,953.45
2018-09-10T05:07:44.398Z,953.41
2018-09-10T05:08:44.392Z,953.38
2018-09-10T05:09:44.422Z,953.43
2018-09-10T05:10:44.444Z,953.44
2018-09-10T05:11:44.391Z,953.42
2018-09-10T05:12:44.375Z,953.45
2018-09-10T05:13:44.370Z,953.46
2018-09-10T05:14:44.367Z,953.48
2018-09-10T05:15:44.363Z,953.48
2018-09-10T05:16:44.363Z,953.50
2018-09-10T05:17:44.372Z,953.48
2018-09-10T05:18:44.819Z,953.55
2018-09-10T05:19:44.345Z,953.55
2018-09-10T05:20:44.344Z,953.61
2018-09-10T05:21:44.337Z,953.60
2018-09-10T05:22:44.336Z,953.66
2018-09-10T05:23:44.335Z,953.66
2018-09-10T05:24:44.331Z,953.65
2018-09-10T05:25:44.327Z,953.60
2018-09-10T05:26:44.321Z,953.64
2018-09-10T05:27:44.317Z,953.66
2018-09-10T05:28:44.313Z,953.68
2018-09-10T05:29:44.339Z,953.69
2018-09-10T05:30:44.304Z,953.75
2018-09-10T05:31:44.302Z,953.72
2018-09-10T05:32:44.322Z,953.74
2018-09-10T05:33:44.293Z,953.76
2018-09-10T05:34:44.286Z,953.75
2018-09-10T05:35:44.286Z,953.76
2018-09-10T05:36:44.286Z,953.74
2018-09-10T05:37:44.284Z,953.75
2018-09-10T05:38:44.277Z,953.74
2018-09-10T05:39:44.275Z,953.74
2018-09-10T05:40:44.265Z,953.75
2018-09-10T05:41:44.308Z,953.75
2018-09-10T05:42:44.261Z,953.80
2018-09-10T05:43:44.341Z,953.79
2018-09-10T05:44:44.356Z,953.79
2018-09-10T05:45:44.292Z,953.79
2018-09-10T05:46:44.265Z,953.79
2018-09-10T05:47:44.275Z,953.81
2018-09-10T05:48:44.271Z,953.79
2018-09-10T05:49:44.285Z,953.79
2018-09-10T05:50:44.232Z,953.83
2018-09-10T05:51:44.228Z,953.80
2018-09-10T05:52:44.232Z,953.82
2018-09-10T05:53:44.226Z,953.82
2018-09-10T05:54:44.218Z,953.82
2018-09-10T05:55:44.218Z,953.80
2018-09-10T05:56:44.215Z,953.80
2018-09-10T05:57:44.212Z,953.77
2018-09-10T05:58:44.209Z,953.80
2018-09-10T05:59:44.201Z,953.81
2018-09-10T06:00:44.204Z,953.81
2018-09-10T06:01:44.199Z,953.79
2018-09-10T06:02:44.194Z,953.80
2018-09-10T06:03:44.195Z,953.78
2018-09-10T06:04:44.201Z,953.79
2018-09-10T06:05:44.185Z,953.79
2018-09-10T06:06:44.198Z,953.81
2018-09-10T06:07:44.181Z,953.82
2018-09-10T06:08:44.214Z,953.84
2018-09-10T06:09:44.175Z,953.84
2018-09-10T06:10:44.170Z,953.84
2018-09-10T06:11:44.173Z,953.83
2018-09-10T06:12:44.164Z,953.86
2018-09-10T06:13:44.158Z,953.85
2018-09-10T06:14:44.159Z,953.84
2018-09-10T06:15:44.157Z,953.88
2018-09-10T06:16:44.244Z,953.88
2018-09-10T06:17:44.150Z,953.86
2018-09-10T06:18:44.147Z,953.86
2018-09-10T06:19:44.145Z,953.86
2018-09-10T06:20:44.145Z,953.89
2018-09-10T06:21:44.142Z,953.91
2018-09-10T06:22:44.139Z,953.94
2018-09-10T06:23:44.135Z,953.96
2018-09-10T06:24:44.136Z,953.97
2018-09-10T06:25:44.132Z,953.91
2018-09-10T06:26:44.132Z,953.91
2018-09-10T06:27:44.130Z,953.91
2018-09-10T06:28:44.124Z,953.87
2018-09-10T06:29:44.122Z,953.86
2018-09-10T06:30:44.117Z,953.85
2018-09-10T06:31:44.122Z,953.85
2018-09-10T06:32:44.116Z,953.87
2018-09-10T06:33:44.112Z,953.86
2018-09-10T06:34:44.110Z,953.89
2018-09-10T06:35:44.109Z,953.88
2018-09-10T06:36:44.105Z,953.86
2018-09-10T06:37:44.103Z,953.85
2018-09-10T06:38:44.107Z,953.87
2018-09-10T06:39:44.104Z,953.91
2018-09-10T06:40:44.106Z,953.89
2018-09-10T06:41:44.099Z,953.98
2018-09-10T06:42:44.097Z,953.99
2018-09-10T06:43:44.096Z,953.98
2018-09-10T06:44:44.090Z,953.96
2018-09-10T06:45:44.089Z,953.94
2018-09-10T06:46:44.089Z,953.94
2018-09-10T06:47:44.131Z,953.93
2018-09-10T06:48:44.102Z,953.89
2018-09-10T06:49:44.090Z,953.93
2018-09-10T06:50:44.168Z,953.95
2018-09-10T06:51:44.085Z,953.98
2018-09-10T06:52:44.081Z,954.03
2018-09-10T06:53:44.078Z,954.04
2018-09-10T06:54:44.078Z,954.05
2018-09-10T06:55:44.076Z,954.06
2018-09-10T06:56:44.098Z,954.14
2018-09-10T06:57:44.073Z,954.11
2018-09-10T06:58:44.075Z,954.13
2018-09-10T06:59:44.074Z,954.09
2018-09-10T07:00:44.070Z,954.11
2018-09-10T07:01:44.074Z,954.15
2018-09-10T07:02:44.074Z,954.11
2018-09-10T07:03:44.069Z,954.17
2018-09-10T07:04:44.080Z,954.22
2018-09-10T07:05:44.071Z,954.19
2018-09-10T07:06:44.070Z,954.25
2018-09-10T07:07:44.073Z,954.19
2018-09-10T07:08:44.067Z,954.21
2018-09-10T07:09:44.088Z,954.22
2018-09-10T07:10:44.071Z,954.23
2018-09-10T07:11:44.072Z,954.30
2018-09-10T07:12:44.107Z,954.33
2018-09-10T07:13:44.084Z,954.33
2018-09-10T07:14:44.082Z,954.31
2018-09-10T07:15:44.089Z,954.32
2018-09-10T07:16:44.091Z,954.35
2018-09-10T07:17:44.096Z,954.31
2018-09-10T07:18:44.237Z,954.31
2018-09-10T07:19:44.105Z,954.36
2018-09-10T07:20:44.119Z,954.32
2018-09-10T07:21:44.132Z,954.31
2018-09-10T07:22:44.123Z,954.34
2018-09-10T07:23:44.130Z,954.32
2018-09-10T07:24:44.134Z,954.31
2018-09-10T07:25:44.142Z,954.33
2018-09-10T07:26:44.146Z,954.33
2018-09-10T07:27:44.155Z,954.32
2018-09-10T07:28:44.165Z,954.40
2018-09-10T07:29:44.169Z,954.40
2018-09-10T07:30:44.175Z,954.41
2018-09-10T07:31:44.179Z,954.43
2018-09-10T07:32:44.196Z,954.47
2018-09-10T07:33:44.197Z,954.53
2018-09-10T07:34:44.200Z,954.52
2018-09-10T07:35:44.209Z,954.54
2018-09-10T07:36:44.219Z,954.56
2018-09-10T07:37:44.226Z,954.55
2018-09-10T07:38:44.235Z,954.50
2018-09-10T07:39:44.244Z,954.43
2018-09-10T07:40:44.251Z,954.47
2018-09-10T07:41:44.259Z,954.48
2018-09-10T07:42:44.265Z,954.53
2018-09-10T07:43:44.289Z,954.54
2018-09-10T07:44:44.287Z,954.54
2018-09-10T07:45:44.294Z,954.52
2018-09-10T07:46:44.300Z,954.54
2018-09-10T07:47:44.309Z,954.59
2018-09-10T07:48:44.325Z,954.58
2018-09-10T07:49:44.357Z,954.60
2018-09-10T07:50:44.357Z,954.61
2018-09-10T07:51:44.366Z,954.64
2018-09-10T07:52:44.377Z,954.61
2018-09-10T07:53:44.371Z,954.66
2018-09-10T07:54:44.410Z,954.67
2018-09-10T07:55:44.383Z,954.69
2018-09-10T07:56:44.390Z,954.65
2018-09-10T07:57:44.399Z,954.67
2018-09-10T07:58:44.410Z,954.67
2018-09-10T07:59:44.424Z,954.71
2018-09-10T08:00:44.490Z,954.69
2018-09-10T08:01:44.439Z,954.68
2018-09-10T08:02:44.453Z,954.69
2018-09-10T08:03:44.459Z,954.70
2018-09-10T08:04:44.476Z,954.72
2018-09-10T08:05:44.481Z,954.71
2018-09-10T08:06:44.490Z,954.78
2018-09-10T08:07:44.502Z,954.72
2018-09-10T08:08:44.526Z,954.77
2018-09-10T08:09:44.581Z,954.82
2018-09-10T08:10:44.532Z,954.81
2018-09-10T08:11:44.544Z,954.79
2018-09-10T08:12:44.556Z,954.79
2018-09-10T08:13:44.608Z,954.79
2018-09-10T08:14:44.576Z,954.79
2018-09-10T08:15:44.585Z,954.77
2018-09-10T08:16:44.621Z,954.77
2018-09-10T08:17:44.606Z,954.80
2018-09-10T08:18:44.619Z,954.82
2018-09-10T08:19:44.647Z,954.78
2018-09-10T08:20:44.638Z,954.77
2018-09-10T08:21:44.648Z,954.84
2018-09-10T08:22:44.662Z,954.87
2018-09-10T08:23:44.674Z,954.86
2018-09-10T08:24:44.687Z,954.89
2018-09-10T08:25:44.698Z,954.86
2018-09-10T08:26:44.714Z,954.85
2018-09-10T08:27:44.720Z,954.90
2018-09-10T08:28:44.733Z,954.89
2018-09-10T08:29:44.750Z,954.92
2018-09-10T08:30:44.756Z,954.93
2018-09-10T08:31:44.766Z,954.94
2018-09-10T08:32:44.780Z,954.97
2018-09-10T08:33:44.804Z,954.90
2018-09-10T08:34:44.809Z,954.90
2018-09-10T08:35:44.816Z,954.90
2018-09-10T08:36:44.842Z,954.94
2018-09-10T08:37:44.841Z,954.96
2018-09-10T08:38:44.851Z,954.93
2018-09-10T08:39:44.868Z,954.92
2018-09-10T08:40:44.882Z,954.90
2018-09-10T08:41:44.922Z,954.93
2018-09-10T08:42:44.941Z,954.94
2018-09-10T08:43:44.913Z,954.99
2018-09-10T08:44:44.936Z,954.94
2018-09-10T08:45:44.960Z,954.93
2018-09-10T08:46:44.956Z,954.95
2018-09-10T08:47:44.969Z,954.91
2018-09-10T08:48:45.047Z,954.92
2018-09-10T08:49:45.102Z,954.93
2018-09-10T08:50:45.012Z,954.91
2018-09-10T08:51:45.020Z,954.93
2018-09-10T08:52:45.038Z,954.94
2018-09-10T08:53:45.047Z,954.92
2018-09-10T08:54:45.350Z,954.93
2018-09-10T08:55:45.258Z,954.92
2018-09-10T08:56:45.135Z,954.91
2018-09-10T08:57:45.099Z,954.94
2018-09-10T08:58:45.117Z,954.90
2018-09-10T08:59:45.134Z,954.90
2018-09-10T09:00:45.141Z,954.91
2018-09-10T09:01:45.200Z,954.92
2018-09-10T09:02:45.200Z,954.91
2018-09-10T09:03:45.242Z,954.95
2018-09-10T09:04:45.251Z,954.91
2018-09-10T09:05:45.212Z,954.93
2018-09-10T09:06:45.227Z,954.93
2018-09-10T09:07:45.239Z,954.88
2018-09-10T09:08:45.280Z,954.86
2018-09-10T09:09:45.270Z,954.87
2018-09-10T09:10:45.279Z,954.87
2018-09-10T09:11:45.299Z,954.86
2018-09-10T09:12:45.311Z,954.85
2018-09-10T09:13:45.323Z,954.86
2018-09-10T09:14:45.356Z,954.86
2018-09-10T09:15:45.350Z,954.85
2018-09-10T09:16:45.367Z,954.81
2018-09-10T09:17:45.380Z,954.77
2018-09-10T09:18:45.402Z,954.75
2018-09-10T09:19:45.408Z,954.75
2018-09-10T09:20:45.424Z,954.81
2018-09-10T09:21:45.446Z,954.75
2018-09-10T09:22:45.456Z,954.75
2018-09-10T09:23:45.472Z,954.79
2018-09-10T09:24:45.484Z,954.79
2018-09-10T09:25:45.494Z,954.77
2018-09-10T09:26:45.509Z,954.79
2018-09-10T09:27:45.541Z,954.81
2018-09-10T09:28:45.540Z,954.82
2018-09-10T09:29:45.607Z,954.84
2018-09-10T09:30:45.577Z,954.83
2018-09-10T09:31:45.584Z,954.85
2018-09-10T09:32:45.598Z,954.82
2018-09-10T09:33:45.612Z,954.83
2018-09-10T09:34:45.636Z,954.81
2018-09-10T09:35:45.646Z,954.84
2018-09-10T09:36:45.666Z,954.85
2018-09-10T09:37:45.678Z,954.85
2018-09-10T09:38:45.687Z,954.84
2018-09-10T09:39:45.710Z,954.91
2018-09-10T09:40:45.727Z,954.88
2018-09-10T09:41:45.745Z,954.91
2018-09-10T09:42:45.754Z,954.93
2018-09-10T09:43:45.773Z,954.87
2018-09-10T09:44:45.781Z,954.89
2018-09-10T09:45:45.793Z,954.90
2018-09-10T09:46:45.803Z,954.93
2018-09-10T09:47:45.830Z,954.85
2018-09-10T09:48:45.850Z,954.86
2018-09-10T09:49:45.856Z,954.87
2018-09-10T09:50:45.869Z,954.85
2018-09-10T09:51:45.884Z,954.84
2018-09-10T09:52:45.892Z,954.88
2018-09-10T09:53:45.909Z,954.81
2018-09-10T09:54:45.923Z,954.83
2018-09-10T09:55:45.937Z,954.84
2018-09-10T09:56:46.021Z,954.84
2018-09-10T09:57:45.969Z,954.87
2018-09-10T09:58:45.987Z,954.86
2018-09-10T09:59:45.997Z,954.88
2018-09-10T10:00:46.014Z,954.87
2018-09-10T10:01:46.029Z,954.91
2018-09-10T10:02:46.044Z,954.89
2018-09-10T10:03:46.056Z,954.92
2018-09-10T10:04:46.077Z,954.91
2018-09-10T10:05:46.090Z,954.94
2018-09-10T10:06:46.104Z,954.89
2018-09-10T10:07:46.125Z,954.87
2018-09-10T10:08:46.133Z,954.88
2018-09-10T10:09:46.151Z,954.86
2018-09-10T10:10:46.160Z,954.86
2018-09-10T10:11:46.262Z,954.82
2018-09-10T10:12:46.196Z,954.82
2018-09-10T10:13:46.212Z,954.82
2018-09-10T10:14:46.228Z,954.80
2018-09-10T10:15:46.242Z,954.74
2018-09-10T10:16:46.255Z,954.74
2018-09-10T10:17:46.270Z,954.73
2018-09-10T10:18:46.282Z,954.73
2018-09-10T10:19:46.302Z,954.74
2018-09-10T10:20:46.317Z,954.72
2018-09-10T10:21:46.340Z,954.73
2018-09-10T10:22:46.344Z,954.75
2018-09-10T10:23:46.361Z,954.73
2018-09-10T10:24:46.379Z,954.70
2018-09-10T10:25:46.392Z,954.75
2018-09-10T10:26:46.406Z,954.72
2018-09-10T10:27:46.418Z,954.73
2018-09-10T10:28:46.441Z,954.72
2018-09-10T10:29:46.453Z,954.74
2018-09-10T10:30:46.469Z,954.73
2018-09-10T10:31:46.482Z,954.68
2018-09-10T10:32:46.499Z,954.71
2018-09-10T10:33:46.513Z,954.76
2018-09-10T10:34:46.525Z,954.75
2018-09-10T10:35:46.545Z,954.72
2018-09-10T10:36:46.557Z,954.73
2018-09-10T10:37:46.587Z,954.75
2018-09-10T10:38:46.584Z,954.76
2018-09-10T10:39:46.633Z,954.77
2018-09-10T10:40:46.615Z,954.76
2018-09-10T10:41:46.629Z,954.76
2018-09-10T10:42:46.643Z,954.74
2018-09-10T10:43:46.660Z,954.84
2018-09-10T10:44:46.670Z,954.81
2018-09-10T10:45:46.688Z,954.81
2018-09-10T10:46:46.699Z,954.78
2018-09-10T10:47:46.718Z,954.78
2018-09-10T10:48:46.729Z,954.77
2018-09-10T10:49:46.747Z,954.72
2018-09-10T10:50:46.754Z,954.75
2018-09-10T10:51:46.773Z,954.76
2018-09-10T10:52:46.784Z,954.77
2018-09-10T10:53:46.823Z,954.82
2018-09-10T10:54:46.809Z,954.78
2018-09-10T10:55:46.825Z,954.79
2018-09-10T10:56:46.845Z,954.79
2018-09-10T10:57:46.854Z,954.78
2018-09-10T10:58:46.874Z,954.80
2018-09-10T10:59:46.883Z,954.76
2018-09-10T11:00:46.898Z,954.81
2018-09-10T11:01:46.912Z,954.83
2018-09-10T11:02:46.924Z,954.80
2018-09-10T11:03:46.993Z,954.76
2018-09-10T11:04:46.949Z,954.78
2018-09-10T11:05:46.969Z,954.81
2018-09-10T11:06:46.978Z,954.80
2018-09-10T11:07:46.992Z,954.75
2018-09-10T11:08:47.001Z,954.79
2018-09-10T11:09:47.017Z,954.77
2018-09-10T11:10:47.032Z,954.76
2018-09-10T11:11:47.039Z,954.74
2018-09-10T11:12:47.054Z,954.71
2018-09-10T11:13:47.076Z,954.71
2018-09-10T11:14:47.083Z,954.70
2018-09-10T11:15:47.094Z,954.73
2018-09-10T11:16:47.149Z,954.72
2018-09-10T11:17:47.125Z,954.63
2018-09-10T11:18:47.146Z,954.68
2018-09-10T11:19:47.148Z,954.70
2018-09-10T11:20:47.157Z,954.66
2018-09-10T11:21:47.177Z,954.63
2018-09-10T11:22:47.193Z,954.66
2018-09-10T11:23:47.201Z,954.66
2018-09-10T11:24:47.216Z,954.66
2018-09-10T11:25:47.226Z,954.68
2018-09-10T11:26:47.241Z,954.66
2018-09-10T11:27:47.262Z,954.66
2018-09-10T11:28:47.267Z,954.66
2018-09-10T11:29:47.275Z,954.71
2018-09-10T11:30:47.290Z,954.67
2018-09-10T11:31:47.299Z,954.66
2018-09-10T11:32:47.317Z,954.65
2018-09-10T11:33:47.322Z,954.66
2018-09-10T11:34:47.340Z,954.63
2018-09-10T11:35:47.349Z,954.60
2018-09-10T11:36:47.363Z,954.61
2018-09-10T11:37:47.373Z,954.59
2018-09-10T11:38:47.379Z,954.60
2018-09-10T11:39:47.394Z,954.62
2018-09-10T11:40:47.402Z,954.64
2018-09-10T11:41:47.410Z,954.63
2018-09-10T11:42:47.462Z,954.63
2018-09-10T11:43:47.433Z,954.63
2018-09-10T11:44:47.452Z,954.63
2018-09-10T11:45:47.450Z,954.60
2018-09-10T11:46:47.460Z,954.67
2018-09-10T11:47:47.471Z,954.70
2018-09-10T11:48:47.479Z,954.68
2018-09-10T11:49:47.492Z,954.72
2018-09-10T11:50:47.498Z,954.70
2018-09-10T11:51:47.505Z,954.68
2018-09-10T11:52:47.516Z,954.66
2018-09-10T11:53:47.532Z,954.67
2018-09-10T11:54:47.540Z,954.65
2018-09-10T11:55:47.606Z,954.65
2018-09-10T11:56:47.556Z,954.62
2018-09-10T11:57:47.564Z,954.68
2018-09-10T11:58:47.574Z,954.64
2018-09-10T11:59:47.582Z,954.66
2018-09-10T12:00:47.591Z,954.68
2018-09-10T12:01:47.669Z,954.69
2018-09-10T12:02:47.611Z,954.70
2018-09-10T12:03:47.620Z,954.73
2018-09-10T12:04:47.628Z,954.77
2018-09-10T12:05:47.650Z,954.82
2018-09-10T12:06:47.645Z,954.83
2018-09-10T12:07:47.662Z,954.80
2018-09-10T12:08:47.662Z,954.78
2018-09-10T12:09:47.672Z,954.75
2018-09-10T12:10:47.706Z,954.68
2018-09-10T12:11:47.697Z,954.72
2018-09-10T12:12:47.704Z,954.65
2018-09-10T12:13:47.720Z,954.67
2018-09-10T12:14:47.731Z,954.66
2018-09-10T12:15:47.742Z,954.69
2018-09-10T12:16:47.760Z,954.69
2018-09-10T12:17:47.765Z,954.63
2018-09-10T12:18:47.774Z,954.64
2018-09-10T12:19:47.785Z,954.60
2018-09-10T12:20:47.793Z,954.58
2018-09-10T12:21:47.801Z,954.58
2018-09-10T12:22:47.806Z,954.56
2018-09-10T12:23:47.825Z,954.52
2018-09-10T12:24:47.831Z,954.50
2018-09-10T12:25:47.843Z,954.51
2018-09-10T12:26:47.844Z,954.52
2018-09-10T12:27:47.858Z,954.49
2018-09-10T12:28:47.870Z,954.45
2018-09-10T12:29:47.873Z,954.41
2018-09-10T12:30:47.880Z,954.43
2018-09-10T12:31:47.886Z,954.44
2018-09-10T12:32:47.894Z,954.39
2018-09-10T12:33:47.902Z,954.44
2018-09-10T12:34:47.907Z,954.48
2018-09-10T12:35:47.913Z,954.43
2018-09-10T12:36:47.927Z,954.38
2018-09-10T12:37:47.930Z,954.40
2018-09-10T12:38:47.939Z,954.40
2018-09-10T12:39:48.028Z,954.35
2018-09-10T12:40:47.949Z,954.38
2018-09-10T12:41:47.955Z,954.37
2018-09-10T12:42:47.959Z,954.38
2018-09-10T12:43:47.968Z,954.38
2018-09-10T12:44:47.979Z,954.41
2018-09-10T12:45:47.982Z,954.38
2018-09-10T12:46:47.990Z,954.40
2018-09-10T12:47:47.993Z,954.41
2018-09-10T12:48:47.997Z,954.38
2018-09-10T12:49:48.011Z,954.38
2018-09-10T12:50:48.012Z,954.38
2018-09-10T12:51:48.021Z,954.33
2018-09-10T12:52:48.029Z,954.34
2018-09-10T12:53:48.034Z,954.35
2018-09-10T12:54:48.038Z,954.38
2018-09-10T12:55:48.041Z,954.35
2018-09-10T12:56:48.050Z,954.31
2018-09-10T12:57:48.056Z,954.35
2018-09-10T12:58:48.125Z,954.33
2018-09-10T12:59:48.070Z,954.30
2018-09-10T13:00:48.076Z,954.30
2018-09-10T13:01:48.080Z,954.31
2018-09-10T13:02:48.080Z,954.31
2018-09-10T13:03:48.092Z,954.29
2018-09-10T13:04:48.096Z,954.27
2018-09-10T13:05:48.101Z,954.27
2018-09-10T13:06:48.102Z,954.20
2018-09-10T13:07:48.106Z,954.20
2018-09-10T13:08:48.114Z,954.21
2018-09-10T13:09:48.121Z,954.17
2018-09-10T13:10:48.202Z,954.19
2018-09-10T13:11:48.121Z,954.18
2018-09-10T13:12:48.134Z,954.16
2018-09-10T13:13:48.139Z,954.15
2018-09-10T13:14:48.139Z,954.16
2018-09-10T13:15:48.155Z,954.21
2018-09-10T13:16:48.157Z,954.17
2018-09-10T13:17:48.166Z,954.14
2018-09-10T13:18:48.164Z,954.14
2018-09-10T13:19:48.171Z,954.13
2018-09-10T13:20:48.181Z,954.15
2018-09-10T13:21:48.181Z,954.13
2018-09-10T13:22:48.188Z,954.14
2018-09-10T13:23:48.196Z,954.14
2018-09-10T13:24:48.193Z,954.14
2018-09-10T13:25:48.237Z,954.09
2018-09-10T13:26:48.205Z,954.14
2018-09-10T13:27:48.207Z,954.11
2018-09-10T13:28:48.210Z,954.10
2018-09-10T13:29:48.241Z,954.10
2018-09-10T13:30:48.225Z,954.07
2018-09-10T13:31:48.227Z,954.04
2018-09-10T13:32:48.234Z,954.06
2018-09-10T13:33:48.233Z,954.02
2018-09-10T13:34:48.246Z,954.05
2018-09-10T13:35:48.242Z,954.00
2018-09-10T13:36:48.264Z,953.98